createdAt,value
2018-09-22T00:00:43.524Z,22.2
2018-09-22T00:01:44.908Z,22.2
2018-09-22T00:03:06.400Z,22.1
2018-09-22T00:04:07.785Z,22.3
2018-09-22T00:05:29.265Z,22.2
2018-09-22T00:06:30.649Z,22.2
2018-09-22T00:07:52.121Z,22.3
2018-09-22T00:08:53.505Z,22.2
2018-09-22T00:10:15.233Z,22.2
2018-09-22T00:11:16.617Z,22.1
2018-09-22T00:12:38.089Z,22.3
2018-09-22T00:13:39.473Z,22.3
2018-09-22T00:15:00.946Z,22.3
2018-09-22T00:16:02.329Z,22.2
2018-09-22T00:17:23.881Z,22.2
2018-09-22T00:18:25.268Z,22.2
2018-09-22T00:19:46.745Z,22.2
2018-09-22T00:20:48.129Z,22.3
2018-09-22T00:22:09.603Z,22.2
2018-09-22T00:23:10.986Z,22.2
2018-09-22T00:24:32.705Z,22.3
2018-09-22T00:25:34.089Z,22.3
2018-09-22T00:26:55.570Z,22.2
2018-09-22T00:27:56.954Z,22.2
2018-09-22T00:29:18.425Z,22.2
2018-09-22T00:30:19.810Z,22.3
2018-09-22T00:31:41.530Z,22.3
2018-09-22T00:32:42.914Z,22.1
2018-09-22T00:34:04.386Z,22.2
2018-09-22T00:35:05.770Z,22.2
2018-09-22T00:36:27.242Z,22.2
2018-09-22T00:37:28.626Z,22.2
2018-09-22T00:38:50.179Z,22.2
2018-09-22T00:39:51.562Z,22.2
2018-09-22T00:41:13.050Z,22.2
2018-09-22T00:42:14.425Z,22.2
2018-09-22T00:43:35.899Z,22.2
2018-09-22T00:44:37.282Z,22.2
2018-09-22T00:45:59.001Z,22.2
2018-09-22T00:47:00.389Z,22.3
2018-09-22T00:48:21.858Z,22.2
2018-09-22T00:49:23.242Z,22.2
2018-09-22T00:50:44.716Z,22.2
2018-09-22T00:51:46.098Z,22.3
2018-09-22T00:53:07.651Z,22.2
2018-09-22T00:54:09.034Z,22.3
2018-09-22T00:55:30.507Z,22.3
2018-09-22T00:56:31.890Z,22.2
2018-09-22T00:57:53.363Z,22.1
2018-09-22T00:58:54.746Z,22.2
2018-09-22T01:00:16.371Z,22.2
2018-09-22T01:01:17.762Z,22.2
2018-09-22T01:02:39.235Z,22.2
2018-09-22T01:03:40.619Z,22.2
2018-09-22T01:05:02.091Z,22.2
2018-09-22T01:06:03.475Z,22.1
2018-09-22T01:07:25.027Z,22.2
2018-09-22T01:08:26.410Z,22.2
2018-09-22T01:09:47.882Z,22.2
2018-09-22T01:10:49.266Z,22.1
2018-09-22T01:12:10.738Z,22.2
2018-09-22T01:13:12.123Z,22.1
2018-09-22T01:14:33.844Z,22.1
2018-09-22T01:15:35.241Z,22.1
2018-09-22T01:16:56.699Z,22.2
2018-09-22T01:17:58.080Z,22.1
2018-09-22T01:19:19.563Z,22.1
2018-09-22T01:20:20.947Z,22.1
2018-09-22T01:21:42.675Z,22.1
2018-09-22T01:22:44.059Z,22.1
2018-09-22T01:24:05.531Z,22.2
2018-09-22T01:25:06.915Z,22.1
2018-09-22T01:26:28.387Z,22.1
2018-09-22T01:27:29.772Z,22.1
2018-09-22T01:28:51.275Z,22.1
2018-09-22T01:29:52.655Z,22.1
2018-09-22T01:31:14.131Z,22.1
2018-09-22T01:32:15.515Z,22.1
2018-09-22T01:33:36.987Z,22.1
2018-09-22T01:34:38.371Z,22.1
2018-09-22T01:35:59.949Z,22.1
2018-09-22T01:37:01.332Z,22.1
2018-09-22T01:38:22.803Z,22.1
2018-09-22T01:39:24.188Z,22.1
2018-09-22T01:40:45.659Z,22.1
2018-09-22T01:41:47.043Z,22.1
2018-09-22T01:43:08.540Z,22.1
2018-09-22T01:44:09.925Z,22.0
2018-09-22T01:45:31.403Z,22.0
2018-09-22T01:46:32.787Z,22.0
2018-09-22T01:47:54.260Z,22.1
2018-09-22T01:48:55.643Z,22.1
2018-09-22T01:50:17.365Z,22.0
2018-09-22T01:51:18.747Z,22.1
2018-09-22T01:52:40.236Z,22.1
2018-09-22T01:53:41.612Z,22.1
2018-09-22T01:55:03.084Z,22.0
2018-09-22T01:56:04.468Z,22.1
2018-09-22T01:57:25.968Z,22.1
2018-09-22T01:58:27.348Z,22.1
2018-09-22T01:59:48.827Z,22.0
2018-09-22T02:00:50.211Z,22.0
2018-09-22T02:02:11.687Z,22.1
2018-09-22T02:03:13.068Z,21.9
2018-09-22T02:04:34.789Z,22.0
2018-09-22T02:05:36.172Z,22.0
2018-09-22T02:06:57.644Z,22.0
2018-09-22T02:07:59.028Z,21.9
2018-09-22T02:09:20.500Z,22.1
2018-09-22T02:10:21.884Z,21.9
2018-09-22T02:11:43.596Z,22.0
2018-09-22T02:12:44.981Z,22.0
2018-09-22T02:14:06.452Z,22.0
2018-09-22T02:15:07.836Z,22.0
2018-09-22T02:16:29.312Z,22.0
2018-09-22T02:17:30.692Z,22.0
2018-09-22T02:18:52.412Z,22.0
2018-09-22T02:19:53.852Z,21.9
2018-09-22T02:21:15.268Z,22.0
2018-09-22T02:22:16.652Z,22.0
2018-09-22T02:23:38.124Z,21.9
2018-09-22T02:24:39.516Z,21.9
2018-09-22T02:26:01.236Z,22.0
2018-09-22T02:27:02.621Z,21.9
2018-09-22T02:28:24.094Z,22.0
2018-09-22T02:29:25.478Z,21.9
2018-09-22T02:30:46.949Z,22.0
2018-09-22T02:31:48.340Z,21.9
2018-09-22T02:33:09.829Z,21.9
2018-09-22T02:34:11.212Z,21.9
2018-09-22T02:35:32.685Z,22.0
2018-09-22T02:36:34.069Z,21.9
2018-09-22T02:37:55.541Z,21.9
2018-09-22T02:38:56.924Z,21.9
2018-09-22T02:40:18.637Z,21.9
2018-09-22T02:41:20.021Z,21.9
2018-09-22T02:42:41.485Z,21.9
2018-09-22T02:43:42.877Z,22.0
2018-09-22T02:45:04.349Z,22.0
2018-09-22T02:46:05.735Z,22.0
2018-09-22T02:47:27.453Z,21.9
2018-09-22T02:48:28.843Z,22.0
2018-09-22T02:49:50.309Z,22.0
2018-09-22T02:50:51.693Z,21.9
2018-09-22T02:52:13.168Z,21.9
2018-09-22T02:53:14.549Z,21.9
2018-09-22T02:54:36.039Z,21.9
2018-09-22T02:55:37.421Z,21.9
2018-09-22T02:56:58.893Z,21.9
2018-09-22T02:58:00.277Z,21.9
2018-09-22T02:59:21.749Z,21.8
2018-09-22T03:00:23.137Z,21.9
2018-09-22T03:01:44.846Z,21.9
2018-09-22T03:02:46.230Z,21.8
2018-09-22T03:04:07.701Z,21.9
2018-09-22T03:05:09.086Z,21.9
2018-09-22T03:06:30.558Z,21.9
2018-09-22T03:07:31.941Z,21.9
2018-09-22T03:08:53.680Z,21.8
2018-09-22T03:09:55.006Z,21.8
2018-09-22T03:11:16.482Z,21.9
2018-09-22T03:12:17.864Z,21.9
2018-09-22T03:13:39.345Z,21.9
2018-09-22T03:14:40.726Z,21.9
2018-09-22T03:16:02.438Z,21.9
2018-09-22T03:17:03.822Z,21.9
2018-09-22T03:18:25.304Z,21.8
2018-09-22T03:19:26.678Z,21.9
2018-09-22T03:20:48.149Z,21.9
2018-09-22T03:21:49.534Z,21.9
2018-09-22T03:23:11.265Z,21.8
2018-09-22T03:24:12.638Z,21.8
2018-09-22T03:25:34.118Z,21.9
2018-09-22T03:26:35.502Z,21.8
2018-09-22T03:27:56.974Z,21.8
2018-09-22T03:28:58.358Z,21.9
2018-09-22T03:30:19.857Z,21.8
2018-09-22T03:31:21.239Z,21.9
2018-09-22T03:32:42.711Z,21.9
2018-09-22T03:33:44.095Z,21.8
2018-09-22T03:35:05.567Z,21.8
2018-09-22T03:36:06.951Z,21.9
2018-09-22T03:37:28.670Z,21.9
2018-09-22T03:38:30.055Z,21.8
2018-09-22T03:39:51.527Z,21.8
2018-09-22T03:40:52.911Z,21.8
2018-09-22T03:42:14.382Z,21.9
2018-09-22T03:43:15.770Z,21.8
2018-09-22T03:44:37.263Z,21.9
2018-09-22T03:45:38.647Z,21.8
2018-09-22T03:47:00.119Z,21.8
2018-09-22T03:48:01.502Z,21.8
2018-09-22T03:49:22.975Z,21.9
2018-09-22T03:50:24.359Z,21.8
2018-09-22T03:51:46.071Z,21.9
2018-09-22T03:52:47.455Z,21.8
2018-09-22T03:54:08.927Z,21.8
2018-09-22T03:55:10.310Z,21.7
2018-09-22T03:56:31.783Z,21.8
2018-09-22T03:57:33.167Z,21.8
2018-09-22T03:58:54.655Z,21.7
2018-09-22T03:59:56.039Z,21.7
2018-09-22T04:01:17.511Z,21.7
2018-09-22T04:02:18.898Z,21.7
2018-09-22T04:03:40.367Z,21.7
2018-09-22T04:04:41.751Z,21.8
2018-09-22T04:06:03.479Z,21.8
2018-09-22T04:07:04.855Z,21.7
2018-09-22T04:08:26.327Z,21.9
2018-09-22T04:09:27.711Z,21.7
2018-09-22T04:10:49.183Z,21.8
2018-09-22T04:11:50.568Z,21.8
2018-09-22T04:13:12.064Z,21.9
2018-09-22T04:14:13.448Z,21.8
2018-09-22T04:15:34.919Z,21.8
2018-09-22T04:16:36.303Z,21.8
2018-09-22T04:17:57.775Z,21.8
2018-09-22T04:18:59.159Z,21.8
2018-09-22T04:20:20.655Z,21.8
2018-09-22T04:21:22.039Z,21.8
2018-09-22T04:22:43.512Z,21.8
2018-09-22T04:23:44.895Z,21.7
2018-09-22T04:25:06.370Z,21.7
2018-09-22T04:26:07.751Z,21.8
2018-09-22T04:27:29.248Z,21.8
2018-09-22T04:28:30.632Z,21.8
2018-09-22T04:29:52.110Z,21.8
2018-09-22T04:30:53.487Z,21.8
2018-09-22T04:32:14.960Z,21.7
2018-09-22T04:33:16.392Z,21.8
2018-09-22T04:34:38.024Z,21.7
2018-09-22T04:35:39.408Z,21.7
2018-09-22T04:37:00.885Z,21.8
2018-09-22T04:38:02.264Z,21.7
2018-09-22T04:39:23.736Z,21.7
2018-09-22T04:40:25.120Z,21.7
2018-09-22T04:41:46.615Z,21.8
2018-09-22T04:42:48.001Z,21.7
2018-09-22T04:44:09.472Z,21.7
2018-09-22T04:45:10.856Z,21.7
2018-09-22T04:46:32.328Z,21.8
2018-09-22T04:47:33.712Z,21.7
2018-09-22T04:48:55.208Z,21.7
2018-09-22T04:49:56.593Z,21.8
2018-09-22T04:51:18.065Z,21.8
2018-09-22T04:52:19.449Z,21.8
2018-09-22T04:53:40.920Z,21.7
2018-09-22T04:54:42.304Z,21.8
2018-09-22T04:56:03.800Z,21.7
2018-09-22T04:57:05.184Z,21.7
2018-09-22T04:58:26.657Z,21.7
2018-09-22T04:59:28.041Z,21.8
2018-09-22T05:00:49.513Z,21.8
2018-09-22T05:01:50.896Z,21.8
2018-09-22T05:03:12.617Z,21.7
2018-09-22T05:04:14.000Z,21.8
2018-09-22T05:05:35.481Z,21.7
2018-09-22T05:06:36.864Z,21.8
2018-09-22T05:07:58.340Z,21.8
2018-09-22T05:08:59.721Z,21.8
2018-09-22T05:10:21.209Z,21.7
2018-09-22T05:11:22.593Z,21.8
2018-09-22T05:12:44.065Z,21.8
2018-09-22T05:13:45.457Z,21.8
2018-09-22T05:15:06.929Z,21.8
2018-09-22T05:16:08.313Z,21.8
2018-09-22T05:17:29.809Z,21.7
2018-09-22T05:18:31.192Z,21.7
2018-09-22T05:19:52.673Z,21.8
2018-09-22T05:20:54.057Z,21.7
2018-09-22T05:22:15.529Z,21.8
2018-09-22T05:23:16.913Z,21.7
2018-09-22T05:24:38.460Z,21.7
2018-09-22T05:25:39.793Z,21.8
2018-09-22T05:27:01.281Z,21.8
2018-09-22T05:28:02.657Z,21.8
2018-09-22T05:29:24.129Z,21.7
2018-09-22T05:30:25.513Z,21.7
2018-09-22T05:31:47.010Z,21.8
2018-09-22T05:32:48.394Z,21.8
2018-09-22T05:34:09.876Z,21.7
2018-09-22T05:35:11.258Z,21.8
2018-09-22T05:36:32.730Z,21.8
2018-09-22T05:37:34.113Z,21.8
2018-09-22T05:38:55.610Z,21.8
2018-09-22T05:39:56.995Z,21.7
2018-09-22T05:41:18.469Z,21.7
2018-09-22T05:42:19.849Z,21.7
2018-09-22T05:43:41.322Z,21.7
2018-09-22T05:44:42.709Z,21.7
2018-09-22T05:46:04.202Z,21.7
2018-09-22T05:47:05.586Z,21.7
2018-09-22T05:48:27.058Z,21.7
2018-09-22T05:49:28.450Z,21.7
2018-09-22T05:50:49.921Z,21.8
2018-09-22T05:51:51.305Z,21.8
2018-09-22T05:53:12.802Z,21.8
2018-09-22T05:54:14.186Z,21.7
2018-09-22T05:55:35.666Z,21.8
2018-09-22T05:56:37.050Z,21.8
2018-09-22T05:57:58.525Z,21.7
2018-09-22T05:58:59.906Z,21.7
2018-09-22T06:00:21.406Z,21.8
2018-09-22T06:01:22.786Z,21.7
2018-09-22T06:02:44.266Z,21.8
2018-09-22T06:03:45.724Z,21.8
2018-09-22T06:05:07.083Z,21.7
2018-09-22T06:06:08.466Z,21.7
2018-09-22T06:07:29.964Z,21.7
2018-09-22T06:08:31.346Z,21.8
2018-09-22T06:09:52.827Z,21.8
2018-09-22T06:10:54.211Z,21.8
2018-09-22T06:12:15.683Z,21.8
2018-09-22T06:13:17.070Z,21.8
2018-09-22T06:14:38.562Z,21.8
2018-09-22T06:15:39.955Z,21.8
2018-09-22T06:17:01.434Z,21.8
2018-09-22T06:18:02.819Z,21.7
2018-09-22T06:19:24.291Z,21.7
2018-09-22T06:20:25.675Z,21.8
2018-09-22T06:21:47.171Z,21.8
2018-09-22T06:22:48.555Z,21.9
2018-09-22T06:24:10.027Z,21.8
2018-09-22T06:25:11.411Z,21.8
2018-09-22T06:26:32.893Z,21.8
2018-09-22T06:27:34.275Z,21.8
2018-09-22T06:28:55.807Z,21.7
2018-09-22T06:29:57.123Z,21.8
2018-09-22T06:31:18.595Z,21.8
2018-09-22T06:32:19.979Z,21.8
2018-09-22T06:33:41.454Z,21.8
2018-09-22T06:34:42.848Z,21.8
2018-09-22T06:36:04.344Z,21.8
2018-09-22T06:37:05.731Z,21.7
2018-09-22T06:38:27.211Z,21.9
2018-09-22T06:39:28.595Z,21.8
2018-09-22T06:40:50.068Z,21.9
2018-09-22T06:41:51.451Z,21.8
2018-09-22T06:43:12.950Z,21.9
2018-09-22T06:44:14.331Z,21.9
2018-09-22T06:45:35.806Z,21.8
2018-09-22T06:46:37.189Z,21.8
2018-09-22T06:47:58.668Z,21.9
2018-09-22T06:49:00.052Z,21.8
2018-09-22T06:50:21.772Z,21.9
2018-09-22T06:51:23.164Z,21.9
2018-09-22T06:52:44.637Z,21.8
2018-09-22T06:53:46.028Z,21.8
2018-09-22T06:55:07.500Z,21.9
2018-09-22T06:56:08.897Z,21.9
2018-09-22T06:57:30.380Z,21.8
2018-09-22T06:58:31.765Z,21.9
2018-09-22T06:59:53.236Z,21.8
2018-09-22T07:00:54.620Z,21.8
2018-09-22T07:02:16.095Z,21.9
2018-09-22T07:03:17.475Z,21.8
2018-09-22T07:04:39.204Z,21.9
2018-09-22T07:05:40.589Z,21.9
2018-09-22T07:07:02.068Z,21.9
2018-09-22T07:08:03.452Z,21.9
2018-09-22T07:09:24.924Z,22.0
2018-09-22T07:10:26.308Z,22.0
2018-09-22T07:11:47.804Z,22.0
2018-09-22T07:12:49.189Z,21.9
2018-09-22T07:14:10.668Z,22.0
2018-09-22T07:15:12.052Z,22.0
2018-09-22T07:16:33.524Z,21.9
2018-09-22T07:17:34.909Z,22.0
2018-09-22T07:18:56.628Z,21.9
2018-09-22T07:19:58.013Z,22.0
2018-09-22T07:21:19.494Z,22.0
2018-09-22T07:22:20.877Z,21.9
2018-09-22T07:23:42.349Z,22.0
2018-09-22T07:24:43.741Z,22.0
2018-09-22T07:26:05.460Z,22.1
2018-09-22T07:27:06.855Z,21.9
2018-09-22T07:28:28.333Z,22.0
2018-09-22T07:29:29.716Z,21.9
2018-09-22T07:30:51.215Z,22.1
2018-09-22T07:31:52.541Z,21.9
2018-09-22T07:33:14.037Z,22.0
2018-09-22T07:34:15.420Z,22.0
2018-09-22T07:35:36.893Z,22.0
2018-09-22T07:36:38.277Z,22.0
2018-09-22T07:37:59.758Z,22.0
2018-09-22T07:39:01.143Z,22.1
2018-09-22T07:40:22.637Z,22.0
2018-09-22T07:41:24.021Z,22.0
2018-09-22T07:42:45.501Z,22.0
2018-09-22T07:43:46.885Z,22.0
2018-09-22T07:45:08.365Z,22.0
2018-09-22T07:46:09.749Z,22.0
2018-09-22T07:47:31.245Z,22.1
2018-09-22T07:48:32.629Z,22.0
2018-09-22T07:49:54.109Z,22.1
2018-09-22T07:50:55.493Z,22.0
2018-09-22T07:52:16.965Z,22.1
2018-09-22T07:53:18.349Z,22.1
2018-09-22T07:54:40.070Z,22.0
2018-09-22T07:55:41.461Z,22.1
2018-09-22T07:57:02.963Z,22.1
2018-09-22T07:58:04.326Z,22.1
2018-09-22T07:59:25.806Z,22.1
2018-09-22T08:00:27.248Z,22.1
2018-09-22T08:01:48.678Z,22.2
2018-09-22T08:02:50.062Z,22.2
2018-09-22T08:04:11.534Z,22.1
2018-09-22T08:05:12.926Z,22.2
2018-09-22T08:06:34.397Z,22.2
2018-09-22T08:07:35.791Z,22.1
2018-09-22T08:08:57.286Z,22.3
2018-09-22T08:09:58.670Z,22.3
2018-09-22T08:11:20.146Z,22.2
2018-09-22T08:12:21.527Z,22.1
2018-09-22T08:13:43.011Z,22.2
2018-09-22T08:14:44.390Z,22.2
2018-09-22T08:16:05.887Z,22.2
2018-09-22T08:17:07.271Z,22.2
2018-09-22T08:18:28.745Z,22.2
2018-09-22T08:19:30.135Z,22.2
2018-09-22T08:20:51.606Z,22.2
2018-09-22T08:21:52.991Z,22.2
2018-09-22T08:23:14.486Z,22.3
2018-09-22T08:24:15.870Z,22.1
2018-09-22T08:25:37.351Z,22.3
2018-09-22T08:26:38.738Z,22.3
2018-09-22T08:28:00.206Z,22.2
2018-09-22T08:29:01.591Z,22.2
2018-09-22T08:30:23.086Z,22.3
2018-09-22T08:31:24.471Z,22.3
2018-09-22T08:32:45.943Z,22.3
2018-09-22T08:33:47.334Z,22.3
2018-09-22T08:35:08.806Z,22.3
2018-09-22T08:36:10.216Z,22.3
2018-09-22T08:37:31.880Z,22.3
2018-09-22T08:38:33.263Z,22.4
2018-09-22T08:39:54.743Z,22.4
2018-09-22T08:40:56.128Z,22.3
2018-09-22T08:42:17.599Z,22.3
2018-09-22T08:43:18.991Z,22.4
2018-09-22T08:44:40.487Z,22.4
2018-09-22T08:45:41.871Z,22.5
2018-09-22T08:47:03.351Z,22.4
2018-09-22T08:48:04.735Z,22.4
2018-09-22T08:49:26.271Z,22.5
2018-09-22T08:50:27.600Z,22.4
2018-09-22T08:51:49.095Z,22.5
2018-09-22T08:52:50.479Z,22.5
2018-09-22T08:54:11.951Z,22.5
2018-09-22T08:55:13.344Z,22.5
2018-09-22T08:56:34.816Z,22.5
2018-09-22T08:57:36.199Z,22.5
2018-09-22T08:58:57.695Z,22.5
2018-09-22T08:59:59.088Z,22.5
2018-09-22T09:01:20.568Z,22.5
2018-09-22T09:02:21.951Z,22.4
2018-09-22T09:03:43.432Z,22.4
2018-09-22T09:04:44.816Z,22.4
2018-09-22T09:06:06.536Z,22.4
2018-09-22T09:07:07.920Z,22.5
2018-09-22T09:08:29.400Z,22.4
2018-09-22T09:09:30.784Z,22.4
2018-09-22T09:10:52.256Z,22.4
2018-09-22T09:11:53.640Z,22.3
2018-09-22T09:13:15.402Z,22.4
2018-09-22T09:14:16.790Z,22.5
2018-09-22T09:15:38.227Z,22.4
2018-09-22T09:16:39.608Z,22.5
2018-09-22T09:18:01.081Z,22.5
2018-09-22T09:19:02.472Z,22.5
2018-09-22T09:20:24.192Z,22.5
2018-09-22T09:21:25.576Z,22.5
2018-09-22T09:22:47.056Z,22.5
2018-09-22T09:23:48.441Z,22.6
2018-09-22T09:25:09.913Z,22.6
2018-09-22T09:26:11.297Z,22.6
2018-09-22T09:27:32.817Z,22.6
2018-09-22T09:28:34.145Z,22.6
2018-09-22T09:29:55.624Z,22.8
2018-09-22T09:30:57.008Z,22.7
2018-09-22T09:32:18.488Z,22.7
2018-09-22T09:33:19.872Z,22.7
2018-09-22T09:34:41.365Z,22.8
2018-09-22T09:35:42.744Z,22.7
2018-09-22T09:37:04.224Z,22.7
2018-09-22T09:38:05.609Z,22.8
2018-09-22T09:39:27.088Z,22.8
2018-09-22T09:40:28.472Z,22.8
2018-09-22T09:41:49.971Z,22.8
2018-09-22T09:42:51.352Z,22.9
2018-09-22T09:44:12.832Z,22.8
2018-09-22T09:45:14.217Z,22.8
2018-09-22T09:46:35.696Z,22.9
2018-09-22T09:47:37.080Z,22.9
2018-09-22T09:48:58.576Z,22.9
2018-09-22T09:49:59.961Z,23.0
2018-09-22T09:51:21.433Z,22.9
2018-09-22T09:52:22.816Z,22.9
2018-09-22T09:53:44.297Z,22.8
2018-09-22T09:54:45.749Z,22.8
2018-09-22T09:56:07.190Z,22.8
2018-09-22T09:57:08.561Z,22.8
2018-09-22T09:58:30.041Z,22.8
2018-09-22T09:59:31.425Z,22.8
2018-09-22T10:00:52.897Z,22.9
2018-09-22T10:01:54.281Z,22.9
2018-09-22T10:03:15.779Z,22.9
2018-09-22T10:04:17.207Z,22.8
2018-09-22T10:05:38.636Z,22.8
2018-09-22T10:06:40.025Z,22.8
2018-09-22T10:08:01.508Z,22.8
2018-09-22T10:09:02.892Z,22.9
2018-09-22T10:10:24.385Z,22.8
2018-09-22T10:11:25.769Z,22.8
2018-09-22T10:12:47.241Z,22.8
2018-09-22T10:13:48.633Z,22.8
2018-09-22T10:15:10.106Z,22.7
2018-09-22T10:16:11.489Z,22.7
2018-09-22T10:17:32.988Z,22.7
2018-09-22T10:18:34.369Z,22.7
2018-09-22T10:19:55.849Z,22.7
2018-09-22T10:20:57.241Z,22.7
2018-09-22T10:22:18.722Z,22.8
2018-09-22T10:23:20.105Z,22.8
2018-09-22T10:24:41.601Z,22.8
2018-09-22T10:25:42.985Z,22.8
2018-09-22T10:27:04.465Z,22.8
2018-09-22T10:28:05.908Z,22.8
2018-09-22T10:29:27.337Z,22.8
2018-09-22T10:30:28.729Z,22.9
2018-09-22T10:31:50.225Z,22.9
2018-09-22T10:32:51.609Z,22.8
2018-09-22T10:34:13.089Z,22.8
2018-09-22T10:35:14.473Z,22.8
2018-09-22T10:36:35.953Z,22.8
2018-09-22T10:37:37.337Z,22.8
2018-09-22T10:38:58.826Z,22.8
2018-09-22T10:40:00.210Z,22.9
2018-09-22T10:41:21.690Z,22.8
2018-09-22T10:42:23.184Z,22.9
2018-09-22T10:43:44.514Z,22.9
2018-09-22T10:44:45.898Z,22.9
2018-09-22T10:46:07.394Z,22.9
2018-09-22T10:47:08.778Z,23.0
2018-09-22T10:48:30.262Z,23.0
2018-09-22T10:49:31.642Z,23.0
2018-09-22T10:50:53.114Z,23.0
2018-09-22T10:51:54.498Z,23.0
2018-09-22T10:53:15.995Z,23.0
2018-09-22T10:54:17.378Z,23.0
2018-09-22T10:55:38.859Z,23.1
2018-09-22T10:56:40.243Z,23.1
2018-09-22T10:58:01.715Z,23.1
2018-09-22T10:59:03.099Z,23.2
2018-09-22T11:00:24.819Z,23.1
2018-09-22T11:01:26.203Z,23.1
2018-09-22T11:02:47.691Z,23.1
2018-09-22T11:03:49.075Z,23.2
2018-09-22T11:05:10.548Z,23.2
2018-09-22T11:06:11.931Z,23.1
2018-09-22T11:07:33.434Z,23.2
2018-09-22T11:08:34.819Z,23.2
2018-09-22T11:09:56.299Z,23.2
2018-09-22T11:10:57.683Z,23.2
2018-09-22T11:12:19.155Z,23.3
2018-09-22T11:13:20.540Z,23.2
2018-09-22T11:14:42.035Z,23.3
2018-09-22T11:15:43.427Z,23.3
2018-09-22T11:17:04.925Z,23.3
2018-09-22T11:18:06.307Z,23.3
2018-09-22T11:19:27.779Z,23.4
2018-09-22T11:20:29.207Z,23.5
2018-09-22T11:21:50.883Z,23.4
2018-09-22T11:22:52.267Z,23.3
2018-09-22T11:24:13.747Z,23.3
2018-09-22T11:25:15.132Z,23.3
2018-09-22T11:26:36.611Z,23.4
2018-09-22T11:27:37.995Z,23.3
2018-09-22T11:28:59.723Z,23.3
2018-09-22T11:30:01.119Z,23.3
2018-09-22T11:31:22.595Z,23.3
2018-09-22T11:32:23.979Z,23.3
2018-09-22T11:33:45.452Z,23.4
2018-09-22T11:34:46.843Z,23.3
2018-09-22T11:36:08.579Z,23.4
2018-09-22T11:37:09.964Z,23.4
2018-09-22T11:38:31.444Z,23.4
2018-09-22T11:39:32.836Z,23.4
2018-09-22T11:40:54.308Z,23.3
2018-09-22T11:41:55.700Z,23.4
2018-09-22T11:43:17.195Z,23.3
2018-09-22T11:44:18.588Z,23.4
2018-09-22T11:45:40.068Z,23.4
2018-09-22T11:46:41.461Z,23.4
2018-09-22T11:48:02.932Z,23.4
2018-09-22T11:49:04.324Z,23.4
2018-09-22T11:50:26.052Z,23.4
2018-09-22T11:51:27.443Z,23.3
2018-09-22T11:52:48.923Z,23.4
2018-09-22T11:53:50.308Z,23.3
2018-09-22T11:55:11.788Z,23.3
2018-09-22T11:56:13.172Z,23.2
2018-09-22T11:57:34.669Z,23.2
2018-09-22T11:58:36.060Z,23.2
2018-09-22T11:59:57.540Z,23.2
2018-09-22T12:00:58.924Z,23.2
2018-09-22T12:02:20.396Z,23.2
2018-09-22T12:03:21.788Z,23.3
2018-09-22T12:04:43.292Z,23.2
2018-09-22T12:05:44.676Z,23.2
2018-09-22T12:07:06.156Z,23.2
2018-09-22T12:08:07.548Z,23.2
2018-09-22T12:09:29.021Z,23.3
2018-09-22T12:10:30.405Z,23.3
2018-09-22T12:11:51.900Z,23.2
2018-09-22T12:12:53.292Z,23.1
2018-09-22T12:14:14.783Z,23.1
2018-09-22T12:15:16.164Z,23.1
2018-09-22T12:16:37.644Z,23.2
2018-09-22T12:17:39.029Z,23.1
2018-09-22T12:19:00.527Z,23.1
2018-09-22T12:20:01.917Z,23.1
2018-09-22T12:21:23.454Z,23.1
2018-09-22T12:22:24.748Z,23.1
2018-09-22T12:23:46.229Z,23.1
2018-09-22T12:24:47.618Z,23.1
2018-09-22T12:26:09.108Z,23.1
2018-09-22T12:27:10.493Z,23.1
2018-09-22T12:28:31.965Z,23.2
2018-09-22T12:29:33.357Z,23.2
2018-09-22T12:30:54.837Z,23.2
2018-09-22T12:31:56.251Z,23.3
2018-09-22T12:33:17.685Z,23.2
2018-09-22T12:34:19.069Z,23.2
2018-09-22T12:35:40.549Z,23.2
2018-09-22T12:36:41.933Z,23.2
2018-09-22T12:38:03.405Z,23.3
2018-09-22T12:39:04.797Z,23.3
2018-09-22T12:40:26.293Z,23.3
2018-09-22T12:41:27.677Z,23.2
2018-09-22T12:42:49.149Z,23.3
2018-09-22T12:43:50.537Z,23.3
2018-09-22T12:45:12.013Z,23.2
2018-09-22T12:46:13.439Z,23.2
2018-09-22T12:47:35.085Z,23.2
2018-09-22T12:48:36.469Z,23.1
2018-09-22T12:49:57.949Z,23.2
2018-09-22T12:50:59.333Z,23.2
2018-09-22T12:52:20.813Z,23.2
2018-09-22T12:53:22.198Z,23.1
2018-09-22T12:54:43.693Z,23.1
2018-09-22T12:55:45.087Z,23.1
2018-09-22T12:57:06.566Z,23.2
2018-09-22T12:58:07.951Z,23.1
2018-09-22T12:59:29.421Z,23.1
2018-09-22T13:00:30.814Z,23.2
2018-09-22T13:01:52.310Z,23.1
2018-09-22T13:02:53.694Z,23.1
2018-09-22T13:04:15.180Z,23.1
2018-09-22T13:05:16.558Z,23.1
2018-09-22T13:06:38.040Z,23.2
2018-09-22T13:07:39.422Z,23.1
2018-09-22T13:09:01.074Z,23.2
2018-09-22T13:10:02.462Z,23.2
2018-09-22T13:11:23.942Z,23.2
2018-09-22T13:12:25.328Z,23.1
2018-09-22T13:13:46.805Z,23.1
2018-09-22T13:14:48.189Z,23.1
2018-09-22T13:16:09.686Z,23.1
2018-09-22T13:17:11.070Z,23.1
2018-09-22T13:18:32.550Z,23.1
2018-09-22T13:19:33.934Z,23.2
2018-09-22T13:20:55.406Z,23.1
2018-09-22T13:21:56.790Z,23.1
2018-09-22T13:23:18.286Z,23.1
2018-09-22T13:24:19.670Z,23.1
2018-09-22T13:25:41.142Z,23.2
2018-09-22T13:26:42.599Z,23.1
2018-09-22T13:28:03.966Z,23.1
2018-09-22T13:29:05.359Z,23.1
2018-09-22T13:30:27.079Z,23.1
2018-09-22T13:31:28.462Z,23.1
2018-09-22T13:32:49.942Z,23.1
2018-09-22T13:33:51.327Z,23.1
2018-09-22T13:35:12.799Z,23.2
2018-09-22T13:36:14.183Z,23.2
2018-09-22T13:37:35.911Z,23.2
2018-09-22T13:38:37.363Z,23.2
2018-09-22T13:39:58.783Z,23.2
2018-09-22T13:41:00.168Z,23.3
2018-09-22T13:42:21.647Z,23.2
2018-09-22T13:43:23.035Z,23.2
2018-09-22T13:44:44.751Z,23.2
2018-09-22T13:45:46.135Z,23.1
2018-09-22T13:47:07.615Z,23.1
2018-09-22T13:48:09.008Z,23.1
2018-09-22T13:49:30.487Z,23.0
2018-09-22T13:50:31.871Z,23.0
2018-09-22T13:51:53.591Z,23.0
2018-09-22T13:52:54.975Z,23.0
2018-09-22T13:54:16.463Z,23.0
2018-09-22T13:55:17.848Z,23.1
2018-09-22T13:56:39.328Z,22.9
2018-09-22T13:57:40.720Z,23.0
2018-09-22T13:59:02.439Z,23.0
2018-09-22T14:00:03.824Z,22.9
2018-09-22T14:01:25.307Z,22.9
2018-09-22T14:02:26.688Z,22.9
2018-09-22T14:03:48.255Z,22.9
2018-09-22T14:04:49.512Z,22.8
2018-09-22T14:06:11.232Z,22.9
2018-09-22T14:07:12.616Z,22.9
2018-09-22T14:08:34.088Z,22.8
2018-09-22T14:09:35.480Z,22.9
2018-09-22T14:10:56.959Z,22.8
2018-09-22T14:11:58.346Z,22.9
2018-09-22T14:13:19.839Z,22.9
2018-09-22T14:14:21.224Z,22.8
2018-09-22T14:15:42.703Z,22.8
2018-09-22T14:16:44.088Z,22.8
2018-09-22T14:18:05.568Z,22.8
2018-09-22T14:19:06.952Z,22.8
2018-09-22T14:20:28.448Z,22.8
2018-09-22T14:21:29.910Z,22.8
2018-09-22T14:22:51.272Z,22.8
2018-09-22T14:23:52.656Z,22.8
2018-09-22T14:25:14.136Z,22.8
2018-09-22T14:26:15.520Z,22.8
2018-09-22T14:27:37.248Z,22.8
2018-09-22T14:28:38.640Z,22.9
2018-09-22T14:30:00.120Z,22.8
2018-09-22T14:31:01.504Z,22.8
2018-09-22T14:32:22.976Z,22.8
2018-09-22T14:33:24.362Z,22.8
2018-09-22T14:34:46.081Z,22.9
2018-09-22T14:35:47.465Z,22.8
2018-09-22T14:37:08.944Z,22.9
2018-09-22T14:38:10.328Z,22.8
2018-09-22T14:39:31.816Z,22.8
2018-09-22T14:40:33.223Z,22.9
2018-09-22T14:41:54.696Z,22.9
2018-09-22T14:42:56.081Z,22.8
2018-09-22T14:44:17.561Z,22.8
2018-09-22T14:45:18.945Z,22.8
2018-09-22T14:46:40.425Z,22.7
2018-09-22T14:47:41.808Z,22.8
2018-09-22T14:49:03.305Z,22.8
2018-09-22T14:50:04.689Z,22.7
2018-09-22T14:51:26.169Z,22.8
2018-09-22T14:52:27.554Z,22.8
2018-09-22T14:53:49.033Z,22.8
2018-09-22T14:54:50.417Z,22.8
2018-09-22T14:56:11.913Z,22.8
2018-09-22T14:57:13.305Z,22.8
2018-09-22T14:58:34.785Z,22.8
2018-09-22T14:59:36.169Z,22.8
2018-09-22T15:00:57.641Z,22.8
2018-09-22T15:01:59.034Z,22.8
2018-09-22T15:03:20.529Z,22.8
2018-09-22T15:04:21.913Z,22.7
2018-09-22T15:05:43.393Z,22.7
2018-09-22T15:06:44.777Z,22.7
2018-09-22T15:08:06.250Z,22.7
2018-09-22T15:09:07.642Z,22.6
2018-09-22T15:10:29.138Z,22.7
2018-09-22T15:11:30.524Z,22.6
2018-09-22T15:12:51.994Z,22.6
2018-09-22T15:13:53.386Z,22.7
2018-09-22T15:15:14.858Z,22.7
2018-09-22T15:16:16.250Z,22.6
2018-09-22T15:17:37.738Z,22.6
2018-09-22T15:18:39.138Z,22.5
2018-09-22T15:20:00.618Z,22.5
2018-09-22T15:21:02.002Z,22.5
2018-09-22T15:22:23.474Z,22.5
2018-09-22T15:23:24.859Z,22.5
2018-09-22T15:24:46.579Z,22.5
2018-09-22T15:25:47.970Z,22.5
2018-09-22T15:27:09.441Z,22.5
2018-09-22T15:28:10.834Z,22.5
2018-09-22T15:29:32.306Z,22.4
2018-09-22T15:30:33.731Z,22.4
2018-09-22T15:31:55.418Z,22.5
2018-09-22T15:32:56.802Z,22.4
2018-09-22T15:34:18.274Z,22.4
2018-09-22T15:35:19.658Z,22.5
2018-09-22T15:36:41.153Z,22.5
2018-09-22T15:37:42.530Z,22.4
2018-09-22T15:39:04.027Z,22.4
2018-09-22T15:40:05.410Z,22.4
2018-09-22T15:41:26.883Z,22.4
2018-09-22T15:42:28.266Z,22.5
2018-09-22T15:43:49.747Z,22.4
2018-09-22T15:44:51.130Z,22.4
2018-09-22T15:46:12.626Z,22.4
2018-09-22T15:47:14.011Z,22.4
2018-09-22T15:48:35.531Z,22.4
2018-09-22T15:49:36.843Z,22.4
2018-09-22T15:50:58.323Z,22.4